• Join FlightAware (Why Join?)
  • Login
  • US Flag 
04:34PM EDT


 

Airport Tracker/Info


-or-


 

Live Flight TrackerFlight Track Log ✈ SQH87 ✈ 11-Apr-2013 ✈ KMEM - KHOT

Flight Track Log - Related Links

Times and Time Zones

All times are in EDT time to prevent confusion due to time zone crossing. See the SQH87 flight status page for this flight to view local times or setup timezone preferences in your user account.

Time Position Orientation Groundspeed Altitude Reporting Facility
EDT Latitude Longitude Course Direction KTS MPH feet Rate Location/Type
07:52AM 35.0500 -89.9833 301° West 106 122 900  Level KMEM
07:53AM 35.0667 -90.0167 301° West 143 165 2,100 1,080 Climbing KMEM
07:54AM 35.1000 -90.0500 321° Northwest 156 180 3,100 1,320 Climbing KMEM
07:57AM 35.1031 -90.1439 272° West 139 160 6,400 1,380 Climbing Memphis Center
07:58AM 35.0844 -90.1897 244° Southwest 139 160 7,600 1,320 Climbing Memphis Center
07:59AM 35.0614 -90.2175 225° Southwest 134 154 9,100 1,380 Climbing Memphis Center
08:00AM 35.0553 -90.2581 260° West 122 140 10,400 1,320 Climbing Memphis Center
08:01AM 35.0450 -90.3014 254° West 129 148 11,800 1,260 Climbing Memphis Center
08:02AM 35.0367 -90.3444 257° West 129 148 13,000 1,200 Climbing Memphis Center
08:03AM 35.0283 -90.3900 257° West 134 154 14,200 1,020 Climbing Memphis Center
08:04AM 35.0178 -90.4408 256° West 147 169 15,100 780 Climbing Memphis Center
08:05AM 35.0094 -90.4914 259° West 152 175 15,800 360 Climbing Memphis Center
08:06AM 34.9967 -90.5497 255° West 173 199 15,900  Climbing Memphis Center
08:07AM 34.9861 -90.6131 259° West 186 214 15,900  Level Memphis Center
08:08AM 34.9756 -90.6714 258° West 198 228 15,900  Level Memphis Center
08:09AM 34.9608 -90.7372 255° West 198 228 15,900  Level Memphis Center
08:10AM 34.9503 -90.7978 258° West 198 228 15,900  Level Memphis Center
08:11AM 34.9375 -90.8636 257° West 204 235 15,900  Level Memphis Center
08:12AM 34.9247 -90.9294 257° West 199 229 15,900  Level Memphis Center
08:13AM 34.9097 -90.9953 254° West 205 236 15,900  Level Memphis Center
08:14AM 34.8992 -91.0558 258° West 200 230 15,900  Level Memphis Center
08:15AM 34.8861 -91.1217 256° West 195 224 16,000  Climbing Memphis Center
08:16AM 34.8733 -91.1797 255° West 181 208 16,000  Level Memphis Center
08:17AM 34.8625 -91.2328 256° West 176 203 16,000  Level Memphis Center
08:18AM 34.8517 -91.2908 257° West 176 203 16,000  Level Memphis Center
08:19AM 34.8408 -91.3489 257° West 176 203 16,000  Level Memphis Center
08:20AM 34.8297 -91.4044 256° West 176 203 16,000  Level Memphis Center
08:21AM 34.8189 -91.4650 258° West 181 208 16,000  Level Memphis Center
08:22AM 34.8058 -91.5231 255° West 181 208 16,000  Level Memphis Center
08:23AM 34.7950 -91.5811 257° West 181 208 16,000  Level Memphis Center
08:24AM 34.7839 -91.6314 255° West 181 208 16,000  Level Memphis Center
08:25AM 34.7728 -91.6894 257° West 181 208 16,000  Level Memphis Center
08:25AM 34.7664 -91.7072 246° West 174 200 16,000  Level Memphis Center
08:25AM 34.7619 -91.7247 253° West 174 200 16,000  Level Memphis Center
08:26AM 34.7617 -91.7500 269° West 176 203 16,000  Level Memphis Center
08:26AM 34.7511 -91.7750 243° Southwest 174 200 16,000  Level Memphis Center
08:27AM 34.7486 -91.8053 264° West 176 203 16,000  Level Memphis Center
08:27AM 34.7419 -91.8356 255° West 176 203 16,000  Level Memphis Center
08:28AM 34.7353 -91.8658 255° West 181 208 16,000  Level Memphis Center
08:28AM 34.7267 -91.8986 252° West 183 211 16,000  Level Memphis Center
08:29AM 34.7242 -91.9264 264° West 186 214 16,000 -540 Level Memphis Center
08:29AM 34.7156 -91.9589 252° West 188 216 15,500 -1,020 Descending Memphis Center
08:30AM 34.7131 -91.9892 264° West 186 214 15,000 -1,020 Descending Memphis Center
08:30AM 34.7022 -92.0167 244° Southwest 196 226 14,600 -1,020 Descending Memphis Center
08:31AM 34.6997 -92.0469 264° West 186 214 14,000 -1,140 Descending Memphis Center
08:31AM 34.6911 -92.0697 245° Southwest 154 177 13,500 -1,200 Descending Memphis Center
08:32AM 34.6864 -92.0972 258° West 174 200 12,800 -1,380 Descending Memphis Center
08:32AM 34.6819 -92.1250 259° West 174 200 12,100 -1,500 Descending Memphis Center
08:33AM 34.6772 -92.1578 260° West 174 200 11,300 -1,500 Descending Memphis Center
08:33AM 34.6686 -92.1878 251° West 184 212 10,600 -1,500 Descending Memphis Center
08:34AM 34.6639 -92.2181 259° West 179 206 9,800 -1,320 Descending Memphis Center
08:34AM 34.6572 -92.2431 252° West 175 201 9,300 -900 Descending Memphis Center
08:35AM 34.6525 -92.2733 259° West 179 206 8,900 -720 Descending Memphis Center
08:35AM 34.6439 -92.3033 251° West 178 205 8,600 -600 Descending Memphis Center
08:36AM 34.6411 -92.3361 264° West 184 212 8,300 -600 Descending Memphis Center
08:36AM 34.6325 -92.3639 249° West 190 219 8,000 -600 Descending Memphis Center
08:37AM 34.6256 -92.3964 255° West 195 224 7,700 -600 Descending Memphis Center
08:38AM 34.6142 -92.4592 258° West 195 224 7,100 -600 Descending Memphis Center
08:39AM 34.6006 -92.5244 256° West 195 224 6,500 -600 Descending Memphis Center
08:40AM 34.5828 -92.5844 250° West 200 230 6,000 -600 Descending Memphis Center
08:41AM 34.5589 -92.6444 244° Southwest 200 230 5,400 -600 Descending Memphis Center
08:42AM 34.5328 -92.6992 240° Southwest 200 230 4,900 -600 Descending Memphis Center
08:43AM 34.5086 -92.7567 243° Southwest 195 224 4,300 -480 Descending Memphis Center
08:44AM 34.4825 -92.8164 242° Southwest 195 224 4,000 -180 Descending Memphis Center
08:45AM 34.4542 -92.8733 239° Southwest 195 224 4,000  Level Memphis Center
08:46AM 34.4300 -92.9331 244° Southwest 195 224 4,000  Level Memphis Center
08:47AM 34.4039 -92.9903 241° Southwest 195 224 4,000  Level Memphis Center
08:48AM 34.3797 -93.0447 242° Southwest 195 224 4,000  Level Memphis Center
08:49AM 34.3533 -93.0994 240° Southwest 195 224 4,000  Level Memphis Center
08:50AM 34.3292 -93.1564 243° Southwest 195 224 4,000  Level Memphis Center
08:51AM 34.3050 -93.2086 241° Southwest 202 232 4,000 -240 Level Memphis Center
08:52AM 34.3058 -93.2614 271° West 192 221 3,600 -600 Descending Memphis Center
08:53AM 34.3536 -93.2806 342° North 124 143 2,900 -660 Descending Memphis Center
08:54AM 34.3811 -93.2614 30° Northeast 120 138 2,300 -600 Descending Memphis Center
08:56AM 34.4174 -93.1600 54° Northeast  Level FlightAware Approximate